createdAt,value
2018-11-12T00:01:09.708Z,11.20
2018-11-12T00:03:37.392Z,11.10
2018-11-12T00:06:05.248Z,11.10
2018-11-12T00:08:33.955Z,11.10
2018-11-12T00:11:01.633Z,11.10
2018-11-12T00:13:29.320Z,11.10
2018-11-12T00:15:57.042Z,11.10
2018-11-12T00:18:24.700Z,11.00
2018-11-12T00:20:52.391Z,11.00
2018-11-12T00:23:19.967Z,10.90
2018-11-12T00:25:47.640Z,10.90
2018-11-12T00:28:15.328Z,10.90
2018-11-12T00:30:42.924Z,10.80
2018-11-12T00:33:10.589Z,10.80
2018-11-12T00:35:38.218Z,10.70
2018-11-12T00:38:05.859Z,10.60
2018-11-12T00:40:33.499Z,10.60
2018-11-12T00:43:01.099Z,10.50
2018-11-12T00:45:28.727Z,10.50
2018-11-12T00:47:56.387Z,10.50
2018-11-12T00:50:24.138Z,10.40
2018-11-12T00:52:51.888Z,10.40
2018-11-12T00:55:19.644Z,10.30
2018-11-12T00:57:47.312Z,10.30
2018-11-12T01:00:17.167Z,10.30
2018-11-12T01:02:46.043Z,10.30
2018-11-12T01:05:14.316Z,10.20
2018-11-12T01:07:41.968Z,10.20
2018-11-12T01:10:11.248Z,10.20
2018-11-12T01:12:39.167Z,10.20
2018-11-12T01:15:08.532Z,10.20
2018-11-12T01:17:36.208Z,10.20
2018-11-12T01:20:03.930Z,10.10
2018-11-12T01:22:32.572Z,10.10
2018-11-12T01:25:00.196Z,10.10
2018-11-12T01:27:27.828Z,10.10
2018-11-12T01:29:55.484Z,10.20
2018-11-12T01:32:23.112Z,10.20
2018-11-12T01:34:50.759Z,10.20
2018-11-12T01:37:18.396Z,10.20
2018-11-12T01:39:46.092Z,10.20
2018-11-12T01:42:13.814Z,10.20
2018-11-12T01:44:41.416Z,10.20
2018-11-12T01:47:09.100Z,10.20
2018-11-12T01:49:36.756Z,10.30
2018-11-12T01:52:05.048Z,10.30
2018-11-12T01:54:32.767Z,10.30
2018-11-12T01:57:00.368Z,10.30
2018-11-12T01:59:28.070Z,10.30
2018-11-12T02:01:55.896Z,10.30
2018-11-12T02:04:23.612Z,10.30
2018-11-12T02:06:51.340Z,10.40
2018-11-12T02:09:19.065Z,10.40
2018-11-12T02:11:46.757Z,10.40
2018-11-12T02:14:14.469Z,10.40
2018-11-12T02:16:42.196Z,10.40
2018-11-12T02:19:09.852Z,10.40
2018-11-12T02:21:37.591Z,10.40
2018-11-12T02:24:05.265Z,10.40
2018-11-12T02:26:32.928Z,10.40
2018-11-12T02:29:00.660Z,10.40
2018-11-12T02:31:28.414Z,10.40
2018-11-12T02:33:56.008Z,10.40
2018-11-12T02:36:23.653Z,10.40
2018-11-12T02:38:51.336Z,10.40
2018-11-12T02:41:18.976Z,10.40
2018-11-12T02:43:46.684Z,10.50
2018-11-12T02:46:14.368Z,10.50
2018-11-12T02:48:42.040Z,10.50
2018-11-12T02:51:09.672Z,10.50
2018-11-12T02:53:37.463Z,10.60
2018-11-12T02:56:05.252Z,10.60
2018-11-12T02:58:32.908Z,10.60
2018-11-12T03:01:00.601Z,10.70
2018-11-12T03:03:29.212Z,10.60
2018-11-12T03:05:56.840Z,10.60
2018-11-12T03:08:24.504Z,10.50
2018-11-12T03:10:52.188Z,10.50
2018-11-12T03:13:19.928Z,10.50
2018-11-12T03:15:48.628Z,10.40
2018-11-12T03:18:16.372Z,10.40
2018-11-12T03:20:44.013Z,10.40
2018-11-12T03:23:11.704Z,10.40
2018-11-12T03:25:39.388Z,10.40
2018-11-12T03:28:07.032Z,10.40
2018-11-12T03:30:34.764Z,10.40
2018-11-12T03:33:02.431Z,10.30
2018-11-12T03:35:30.120Z,10.40
2018-11-12T03:37:57.772Z,10.40
2018-11-12T03:40:25.464Z,10.40
2018-11-12T03:42:53.181Z,10.40
2018-11-12T03:45:22.023Z,10.50
2018-11-12T03:47:49.683Z,10.50
2018-11-12T03:50:18.656Z,10.50
2018-11-12T03:52:46.341Z,10.50
2018-11-12T03:55:15.245Z,10.50
2018-11-12T03:57:42.964Z,10.60
2018-11-12T04:00:12.650Z,10.60
2018-11-12T04:02:40.340Z,10.60
2018-11-12T04:05:08.337Z,10.60
2018-11-12T04:07:36.226Z,10.60
2018-11-12T04:10:05.016Z,10.60
2018-11-12T04:12:32.688Z,10.70
2018-11-12T04:15:00.372Z,10.70
2018-11-12T04:17:29.084Z,10.70
2018-11-12T04:19:56.716Z,10.70
2018-11-12T04:22:24.437Z,10.70
2018-11-12T04:24:52.072Z,10.70
2018-11-12T04:27:19.727Z,10.80
2018-11-12T04:29:47.460Z,10.80
2018-11-12T04:32:15.197Z,10.80
2018-11-12T04:34:42.879Z,10.90
2018-11-12T04:37:10.609Z,10.90
2018-11-12T04:39:38.224Z,10.90
2018-11-12T04:42:05.936Z,11.00
2018-11-12T04:44:33.649Z,11.00
2018-11-12T04:47:01.418Z,11.00
2018-11-12T04:49:29.104Z,11.00
2018-11-12T04:51:56.773Z,11.00
2018-11-12T04:54:24.472Z,11.10
2018-11-12T04:56:52.236Z,11.10
2018-11-12T04:59:19.880Z,11.10
2018-11-12T05:01:47.571Z,11.10
2018-11-12T05:04:15.249Z,11.10
2018-11-12T05:06:42.968Z,11.10
2018-11-12T05:09:11.165Z,11.10
2018-11-12T05:11:39.080Z,11.10
2018-11-12T05:14:06.825Z,11.10
2018-11-12T05:16:34.567Z,11.10
2018-11-12T05:19:02.212Z,11.10
2018-11-12T05:21:29.844Z,11.10
2018-11-12T05:23:57.542Z,11.10
2018-11-12T05:26:25.316Z,11.10
2018-11-12T05:28:53.000Z,11.10
2018-11-12T05:31:20.732Z,11.10
2018-11-12T05:33:48.404Z,11.10
2018-11-12T05:36:16.166Z,11.10
2018-11-12T05:38:43.885Z,11.10
2018-11-12T05:41:11.572Z,11.10
2018-11-12T05:43:39.300Z,11.20
2018-11-12T05:46:06.844Z,11.20
2018-11-12T05:48:34.477Z,11.20
2018-11-12T05:51:02.220Z,11.20
2018-11-12T05:53:29.920Z,11.20
2018-11-12T05:55:57.552Z,11.20
2018-11-12T05:58:25.204Z,11.20
2018-11-12T06:00:52.888Z,11.20
2018-11-12T06:03:21.568Z,11.20
2018-11-12T06:05:49.230Z,11.20
2018-11-12T06:08:16.943Z,11.20
2018-11-12T06:10:44.607Z,11.20
2018-11-12T06:13:13.084Z,11.20
2018-11-12T06:15:40.748Z,11.30
2018-11-12T06:18:09.410Z,11.30
2018-11-12T06:20:37.149Z,11.30
2018-11-12T06:23:05.000Z,11.30
2018-11-12T06:25:33.764Z,11.30
2018-11-12T06:28:01.412Z,11.30
2018-11-12T06:30:30.580Z,11.30
2018-11-12T06:32:58.304Z,11.30
